Lewek Teal — V7ZE4 — position and weather

sailwx.info

Track history (hours):
 
Tides and Currents Weather Stations Pressure Air Temp Water Temp Dewpoint Dewpoint Depression Visibility Wind Speed Wind Dir Waves Ship Positions

Lewek Teal

Last reported at 2015-Jul-18 12:08 UTC. Time now 2015-Aug-03 08:37 UTC.
Position N 03°34' E 100°20'.
Warning: this ship's position is 15 days out of date.

Length 92 m; draft 7.2 m.

Type: Tug. MMSI: 538004803.

Date/timePositionNaut miles runAvg speedWind from/ knotsBaromVisibWave heightAir tempDewpointWater temp
2015-Jul-18 12:08N 03°34' E 100°20'35 9.6
2015-Jul-18 08:30N 03°08' E 100°43'19 9.6
2015-Jul-18 06:33N 02°55' E 100°56'26 8.7
2015-Jul-18 03:33N 02°41' E 101°18'19 9.6
2015-Jul-18 01:33N 02°31' E 101°34'  
2015-Jul-15 07:19N 01°12' E 103°49'0 0.6
2015-Jul-15 06:32N 01°13' E 103°49'2 1.6
2015-Jul-15 05:33N 01°15' E 103°49'0 0.1
2015-Jul-15 04:29N 01°15' E 103°49'0 0.0
2015-Jul-15 03:12N 01°15' E 103°49'0 0.0
2015-Jul-15 02:10N 01°15' E 103°49'0 0.0
2015-Jul-15 01:33N 01°15' E 103°49'0 0.0
2015-Jul-15 00:32N 01°15' E 103°49'0 0.0
2015-Jul-14 23:33N 01°15' E 103°49'0 0.0
2015-Jul-14 22:33N 01°15' E 103°49'0 0.0
2015-Jul-14 21:32N 01°15' E 103°49'0 0.0
2015-Jul-14 20:28N 01°15' E 103°49'0 0.0
2015-Jul-14 19:29N 01°15' E 103°49'0 0.0
2015-Jul-14 18:33N 01°15' E 103°49'0 0.0
2015-Jul-14 17:34N 01°15' E 103°49'0 0.0
2015-Jul-14 16:33N 01°15' E 103°49'0 0.0
2015-Jul-14 15:27N 01°15' E 103°49'0 0.0
2015-Jul-14 14:29N 01°15' E 103°49'0 0.1
2015-Jul-14 13:19N 01°15' E 103°49'0 0.0
2015-Jul-14 12:19N 01°15' E 103°49'0 0.1
2015-Jul-14 11:28N 01°15' E 103°49'0 0.1
2015-Jul-14 10:33N 01°15' E 103°49'0 0.1
2015-Jul-14 09:29N 01°15' E 103°49'0 0.0
2015-Jul-14 08:31N 01°15' E 103°49'0 0.1
2015-Jul-14 07:33N 01°15' E 103°49'0 0.1
2015-Jul-14 06:32N 01°15' E 103°49'0 0.0
2015-Jul-14 05:26N 01°15' E 103°49'1 1.5
2015-Jul-14 04:33N 01°15' E 103°48'5 5.0
2015-Jul-14 03:34N 01°14' E 103°43'  
Track history (hours):
 
Tides and Currents Weather Stations Pressure Air Temp Water Temp Dewpoint Dewpoint Depression Visibility Wind Speed Wind Dir Waves Ship Positions

Lewek Teal

Last reported at 2015-Jul-18 12:08 UTC. Time now 2015-Aug-03 08:37 UTC.
Position N 03°34' E 100°20'.
Warning: this ship's position is 15 days out of date.

Length 92 m; draft 7.2 m.

Type: Tug. MMSI: 538004803.

Date/timePositionNaut miles runAvg speedWind from/ knotsBaromVisibWave heightAir tempDewpointWater temp
2015-Jul-18 12:08N 03°34' E 100°20'35 9.6
2015-Jul-18 08:30N 03°08' E 100°43'19 9.6
2015-Jul-18 06:33N 02°55' E 100°56'26 8.7
2015-Jul-18 03:33N 02°41' E 101°18'19 9.6
2015-Jul-18 01:33N 02°31' E 101°34'  
2015-Jul-15 07:19N 01°12' E 103°49'0 0.6
2015-Jul-15 06:32N 01°13' E 103°49'2 1.6
2015-Jul-15 05:33N 01°15' E 103°49'0 0.1
2015-Jul-15 04:29N 01°15' E 103°49'0 0.0
2015-Jul-15 03:12N 01°15' E 103°49'0 0.0
2015-Jul-15 02:10N 01°15' E 103°49'0 0.0
2015-Jul-15 01:33N 01°15' E 103°49'0 0.0
2015-Jul-15 00:32N 01°15' E 103°49'0 0.0
2015-Jul-14 23:33N 01°15' E 103°49'0 0.0
2015-Jul-14 22:33N 01°15' E 103°49'0 0.0
2015-Jul-14 21:32N 01°15' E 103°49'0 0.0
2015-Jul-14 20:28N 01°15' E 103°49'0 0.0
2015-Jul-14 19:29N 01°15' E 103°49'0 0.0
2015-Jul-14 18:33N 01°15' E 103°49'0 0.0
2015-Jul-14 17:34N 01°15' E 103°49'0 0.0
2015-Jul-14 16:33N 01°15' E 103°49'0 0.0
2015-Jul-14 15:27N 01°15' E 103°49'0 0.0
2015-Jul-14 14:29N 01°15' E 103°49'0 0.1
2015-Jul-14 13:19N 01°15' E 103°49'0 0.0
2015-Jul-14 12:19N 01°15' E 103°49'0 0.1
2015-Jul-14 11:28N 01°15' E 103°49'0 0.1
2015-Jul-14 10:33N 01°15' E 103°49'0 0.1
2015-Jul-14 09:29N 01°15' E 103°49'0 0.0
2015-Jul-14 08:31N 01°15' E 103°49'0 0.1
2015-Jul-14 07:33N 01°15' E 103°49'0 0.1
2015-Jul-14 06:32N 01°15' E 103°49'0 0.0
2015-Jul-14 05:26N 01°15' E 103°49'1 1.5
2015-Jul-14 04:33N 01°15' E 103°48'5 5.0
2015-Jul-14 03:34N 01°14' E 103°43'  

Dump ship's entire track history